Time;durP1;ratioP1;P1;durP2;ratioP2;P2;SDS_P1;SDS_P2;PMS_P1;PMS_P2;Temp;Humidity;BMP_temperature;BMP_pressure;BME280_temperature;BME280_humidity;BME280_pressure;Samples;Min_cycle;Max_cycle;Signal;HPM_P1;HPM_P2
2022/08/14 00:02:09;;;;;;;;;6.00;5.25;;;;;;;;5074375;28;45417;-61
2022/08/14 00:04:35;;;;;;;;;6.25;6.25;;;;;;;;5074403;28;46358;-62
2022/08/14 00:07:01;;;;;;;;;5.25;5.25;;;;;;;;5074327;28;45214;-62
2022/08/14 00:09:27;;;;;;;;;4.25;4.25;;;;;;;;5074395;28;45288;-61
2022/08/14 00:11:52;;;;;;;;;4.25;4.25;;;;;;;;5056180;28;45416;-61
2022/08/14 00:14:17;;;;;;;;;5.00;5.00;;;;;;;;5074182;28;46132;-62
2022/08/14 00:16:43;;;;;;;;;3.50;3.50;;;;;;;;5074418;28;45138;-62
2022/08/14 00:19:08;;;;;;;;;4.00;4.00;;;;;;;;5074320;28;45364;-61
2022/08/14 00:21:33;;;;;;;;;4.50;3.50;;;;;;;;5074222;28;45393;-61
2022/08/14 00:23:59;;;;;;;;;4.25;4.25;;;;;;;;5055947;27;46457;-62
2022/08/14 00:26:24;;;;;;;;;4.00;4.00;;;;;;;;5074169;28;45284;-62
2022/08/14 00:28:50;;;;;;;;;4.00;4.00;;;;;;;;5056273;27;45402;-62
2022/08/14 00:31:15;;;;;;;;;5.00;4.00;;;;;;;;5074352;28;45278;-62
2022/08/14 00:33:40;;;;;;;;;4.75;3.50;;;;;;;;5074008;28;45951;-62
2022/08/14 00:36:06;;;;;;;;;4.25;4.25;;;;;;;;5055819;28;45373;-62
2022/08/14 00:38:31;;;;;;;;;6.00;5.00;;;;;;;;5074107;28;45381;-62
2022/08/14 00:40:56;;;;;;;;;7.00;5.00;;;;;;;;5073911;28;45320;-61
2022/08/14 00:43:22;;;;;;;;;6.00;4.75;;;;;;;;5074120;28;46338;-61
2022/08/14 00:45:47;;;;;;;;;4.75;3.00;;;;;;;;5073935;28;45293;-61
2022/08/14 00:48:13;;;;;;;;;4.25;4.25;;;;;;;;5074008;28;45305;-61
2022/08/14 00:50:38;;;;;;;;;6.25;4.25;;;;;;;;5055710;28;45407;-62
2022/08/14 00:53:04;;;;;;;;;4.75;4.75;;;;;;;;5073554;28;46109;-62
2022/08/14 00:55:30;;;;;;;;;6.00;4.75;;;;;;;;5073735;28;45348;-62
2022/08/14 01:00:39;;;;;;;;;5.00;5.00;;;;;;;;5073929;28;45203;-60
2022/08/14 01:03:05;;;;;;;;;5.50;5.50;;;;;;;;5073352;28;45600;-61
2022/08/14 01:05:33;;;;;;;;;5.00;5.00;;;;;;;;5073675;28;45329;-61
2022/08/14 01:07:59;;;;;;;;;6.50;5.50;;;;;;;;5073825;28;45413;-61
2022/08/14 01:10:49;;;;;;;;;4.00;4.00;;;;;;;;5073364;28;45464;-61
2022/08/14 01:13:15;;;;;;;;;3.25;3.25;;;;;;;;5073208;28;46040;-61
2022/08/14 01:15:41;;;;;;;;;1.25;1.25;;;;;;;;5055543;27;45356;-60
2022/08/14 01:21:03;;;;;;;;;4.75;4.75;;;;;;;;5073476;28;45213;-61
2022/08/14 01:23:29;;;;;;;;;3.25;3.25;;;;;;;;5072761;27;45564;-60
2022/08/14 01:25:55;;;;;;;;;4.25;4.25;;;;;;;;5073393;28;45404;-60
2022/08/14 01:28:21;;;;;;;;;3.50;3.50;;;;;;;;5073177;28;45291;-60
2022/08/14 01:30:47;;;;;;;;;6.25;4.25;;;;;;;;5073420;28;45389;-60
2022/08/14 01:33:12;;;;;;;;;5.75;4.25;;;;;;;;5055149;27;46473;-61
2022/08/14 01:35:45;;;;;;;;;5.00;5.00;;;;;;;;5073204;28;45272;-61
2022/08/14 01:38:13;;;;;;;;;4.00;4.00;;;;;;;;5073239;28;45329;-61
2022/08/14 01:40:39;;;;;;;;;4.00;4.00;;;;;;;;5073401;27;45222;-61
2022/08/14 01:43:14;;;;;;;;;5.00;4.00;;;;;;;;5072958;28;45556;-61
2022/08/14 01:45:39;;;;;;;;;3.25;3.00;;;;;;;;5072958;28;45464;-60
2022/08/14 01:48:05;;;;;;;;;5.50;5.25;;;;;;;;5054818;28;45349;-61
2022/08/14 01:50:31;;;;;;;;;4.50;4.50;;;;;;;;5073296;28;45458;-60
2022/08/14 01:52:56;;;;;;;;;5.00;5.00;;;;;;;;5072898;28;46306;-61
2022/08/14 01:55:22;;;;;;;;;3.75;3.75;;;;;;;;5054802;28;45570;-61
2022/08/14 01:57:47;;;;;;;;;3.75;3.75;;;;;;;;5072982;28;45271;-61
2022/08/14 02:00:17;;;;;;;;;4.75;4.00;;;;;;;;5072927;28;45301;-61
2022/08/14 02:02:42;;;;;;;;;4.25;4.25;;;;;;;;5072656;28;47352;-61
2022/08/14 02:05:10;;;;;;;;;3.00;3.00;;;;;;;;5072657;28;45232;-61
2022/08/14 02:07:36;;;;;;;;;6.00;5.00;;;;;;;;5072959;28;45320;-60
2022/08/14 02:10:02;;;;;;;;;4.50;3.50;;;;;;;;5072721;28;45379;-61
2022/08/14 02:12:28;;;;;;;;;4.00;4.00;;;;;;;;5054352;28;47546;-61
2022/08/14 02:14:53;;;;;;;;;4.25;4.25;;;;;;;;5072547;28;45420;-61
2022/08/14 02:17:22;;;;;;;;;4.25;3.25;;;;;;;;5072830;28;45457;-61
2022/08/14 02:19:49;;;;;;;;;3.25;3.25;;;;;;;;5072680;28;45470;-61
2022/08/14 02:22:17;;;;;;;;;3.00;3.00;;;;;;;;5072067;27;46542;-60
2022/08/14 02:24:42;;;;;;;;;4.75;4.75;;;;;;;;5072444;28;45329;-60
2022/08/14 02:27:08;;;;;;;;;4.00;4.00;;;;;;;;5072533;28;45262;-60
2022/08/14 02:29:33;;;;;;;;;2.00;2.00;;;;;;;;5072564;28;45472;-60
2022/08/14 02:31:59;;;;;;;;;5.00;3.00;;;;;;;;5072277;28;46055;-61
2022/08/14 02:34:30;;;;;;;;;3.75;3.50;;;;;;;;5073586;28;45384;-60
2022/08/14 02:36:58;;;;;;;;;4.50;4.00;;;;;;;;5075568;28;45427;-60
2022/08/14 02:39:24;;;;;;;;;5.00;3.75;;;;;;;;5075653;28;45384;-60
2022/08/14 02:41:51;;;;;;;;;4.00;4.00;;;;;;;;5075205;28;45403;-60
2022/08/14 02:44:21;;;;;;;;;5.50;4.25;;;;;;;;5075433;28;45382;-61
2022/08/14 02:46:47;;;;;;;;;4.25;4.25;;;;;;;;5075475;28;45225;-61
2022/08/14 02:49:12;;;;;;;;;4.75;4.50;;;;;;;;5075464;28;45230;-60
2022/08/14 02:51:38;;;;;;;;;2.00;2.00;;;;;;;;5075584;28;46502;-60
2022/08/14 02:54:06;;;;;;;;;1.75;1.75;;;;;;;;5075296;28;45295;-61
2022/08/14 02:56:31;;;;;;;;;5.75;4.00;;;;;;;;5057168;28;45330;-61
2022/08/14 02:59:00;;;;;;;;;3.00;3.00;;;;;;;;5075113;28;45333;-59
2022/08/14 03:01:26;;;;;;;;;4.00;4.00;;;;;;;;5075093;28;46922;-60
2022/08/14 03:03:52;;;;;;;;;4.25;4.25;;;;;;;;5056883;28;45446;-61
2022/08/14 03:06:22;;;;;;;;;7.25;5.00;;;;;;;;5075265;28;45413;-60
2022/08/14 03:08:48;;;;;;;;;4.25;4.25;;;;;;;;5056970;28;45330;-61
2022/08/14 03:11:13;;;;;;;;;4.75;3.75;;;;;;;;5074951;28;46633;-61
2022/08/14 03:13:40;;;;;;;;;5.75;5.75;;;;;;;;5056968;27;46137;-61
2022/08/14 03:16:07;;;;;;;;;6.50;5.00;;;;;;;;5075283;28;45336;-61
2022/08/14 03:18:32;;;;;;;;;7.00;6.75;;;;;;;;5074956;28;45437;-61
2022/08/14 03:21:06;;;;;;;;;6.75;5.00;;;;;;;;5056507;28;46377;-61
2022/08/14 03:23:35;;;;;;;;;5.00;5.00;;;;;;;;5074773;28;45386;-61
2022/08/14 03:26:02;;;;;;;;;5.00;4.00;;;;;;;;5056816;28;45355;-61
2022/08/14 03:28:28;;;;;;;;;5.75;5.00;;;;;;;;5056657;28;45476;-61
2022/08/14 03:30:53;;;;;;;;;5.00;5.00;;;;;;;;5074705;28;46443;-61
2022/08/14 03:33:18;;;;;;;;;6.00;6.00;;;;;;;;5074994;28;45288;-61
2022/08/14 03:35:43;;;;;;;;;6.25;6.25;;;;;;;;5074948;28;45368;-61
2022/08/14 03:38:10;;;;;;;;;6.00;6.00;;;;;;;;5074914;28;45298;-61
2022/08/14 03:40:39;;;;;;;;;6.00;6.00;;;;;;;;5074553;28;46618;-61
2022/08/14 03:43:05;;;;;;;;;8.50;6.75;;;;;;;;5074504;28;45347;-61
2022/08/14 03:45:32;;;;;;;;;5.00;5.00;;;;;;;;5074481;28;45340;-61
2022/08/14 03:47:59;;;;;;;;;6.00;6.00;;;;;;;;5056425;27;45342;-61
2022/08/14 03:50:25;;;;;;;;;6.00;6.00;;;;;;;;5074373;28;46436;-61
2022/08/14 03:52:50;;;;;;;;;6.75;5.00;;;;;;;;5074465;28;45384;-61
2022/08/14 03:55:15;;;;;;;;;6.00;6.00;;;;;;;;5056731;27;45331;-60
2022/08/14 03:57:40;;;;;;;;;5.00;5.00;;;;;;;;5074753;28;45499;-60
2022/08/14 04:00:09;;;;;;;;;6.00;6.00;;;;;;;;5074357;28;46019;-60
2022/08/14 04:02:35;;;;;;;;;5.50;5.50;;;;;;;;5074426;28;45448;-60
2022/08/14 04:05:00;;;;;;;;;5.75;5.75;;;;;;;;5056262;28;45326;-60
2022/08/14 04:07:26;;;;;;;;;4.00;4.00;;;;;;;;5074569;28;45325;-61
2022/08/14 04:09:51;;;;;;;;;4.50;4.50;;;;;;;;5074352;28;45766;-62
2022/08/14 04:12:18;;;;;;;;;6.50;6.50;;;;;;;;5074386;28;45398;-61
2022/08/14 04:14:43;;;;;;;;;4.75;4.75;;;;;;;;5074577;28;45856;-61
2022/08/14 04:17:10;;;;;;;;;5.50;4.50;;;;;;;;5074292;28;45435;-61
2022/08/14 04:19:35;;;;;;;;;4.00;4.00;;;;;;;;5074187;28;45717;-61
2022/08/14 04:22:00;;;;;;;;;8.25;5.25;;;;;;;;5073672;28;45313;-61
2022/08/14 04:24:25;;;;;;;;;4.75;4.75;;;;;;;;5056073;28;45346;-61
2022/08/14 04:26:50;;;;;;;;;5.00;5.00;;;;;;;;5074273;28;45234;-61
2022/08/14 04:29:16;;;;;;;;;5.50;4.75;;;;;;;;5074305;28;45589;-61
2022/08/14 04:31:41;;;;;;;;;5.50;5.50;;;;;;;;5056165;28;45333;-61
2022/08/14 04:34:07;;;;;;;;;6.00;6.00;;;;;;;;5074371;28;45456;-61
2022/08/14 04:43:34;;;;;;;;;5.25;5.25;;;;;;;;5074390;28;45390;-61
2022/08/14 04:44:45;;;;;;;;;8.00;8.00;;;;;;;;5073984;28;45470;-61
2022/08/14 04:49:53;;;;;;;;;6.75;6.75;;;;;;;;5074046;28;45391;-60
2022/08/14 04:52:19;;;;;;;;;4.25;4.25;;;;;;;;5073960;28;45345;-60
2022/08/14 04:54:44;;;;;;;;;5.00;5.00;;;;;;;;5074091;28;45413;-61
2022/08/14 04:57:12;;;;;;;;;6.00;6.00;;;;;;;;5072893;28;45443;-61
2022/08/14 04:59:37;;;;;;;;;5.00;5.00;;;;;;;;5073731;28;45853;-61
2022/08/14 05:02:02;;;;;;;;;6.00;5.50;;;;;;;;5073733;28;45293;-61
2022/08/14 05:04:28;;;;;;;;;4.50;4.50;;;;;;;;5073931;28;45461;-60
2022/08/14 05:06:53;;;;;;;;;4.75;4.75;;;;;;;;5073961;28;45274;-60
2022/08/14 05:09:18;;;;;;;;;6.50;6.50;;;;;;;;5073711;28;45650;-60
2022/08/14 05:11:44;;;;;;;;;5.75;5.75;;;;;;;;5073621;28;45389;-61
2022/08/14 05:14:10;;;;;;;;;7.00;7.00;;;;;;;;5055439;28;45325;-61
2022/08/14 05:16:35;;;;;;;;;5.00;5.00;;;;;;;;5073631;28;45314;-61
2022/08/14 05:19:00;;;;;;;;;5.25;5.25;;;;;;;;5073176;28;47466;-60
2022/08/14 05:21:27;;;;;;;;;6.00;5.00;;;;;;;;5073247;28;45326;-61
2022/08/14 05:23:53;;;;;;;;;6.25;6.25;;;;;;;;5073349;27;45331;-61
2022/08/14 05:26:20;;;;;;;;;4.25;4.25;;;;;;;;5073470;28;45297;-61
2022/08/14 05:28:45;;;;;;;;;5.75;5.00;;;;;;;;5055295;27;47555;-61
2022/08/14 05:31:12;;;;;;;;;6.00;6.00;;;;;;;;5054940;28;45333;-60
2022/08/14 05:33:37;;;;;;;;;6.25;6.00;;;;;;;;5073673;28;45419;-61
2022/08/14 05:36:04;;;;;;;;;7.25;6.25;;;;;;;;5073386;28;45339;-61
2022/08/14 05:38:33;;;;;;;;;6.00;6.00;;;;;;;;5073260;28;46781;-61
2022/08/14 05:41:14;;;;;;;;;4.75;4.75;;;;;;;;5073158;28;45456;-61
2022/08/14 05:43:40;;;;;;;;;6.50;4.25;;;;;;;;5073450;28;45376;-61
2022/08/14 05:46:08;;;;;;;;;6.00;6.00;;;;;;;;5073225;28;45513;-62
2022/08/14 05:48:33;;;;;;;;;8.00;8.00;;;;;;;;5054670;28;47125;-61
2022/08/14 05:50:58;;;;;;;;;5.25;5.25;;;;;;;;5073034;28;45361;-61
2022/08/14 05:53:24;;;;;;;;;6.75;6.75;;;;;;;;5073455;28;45405;-61
2022/08/14 05:55:51;;;;;;;;;6.00;6.00;;;;;;;;5054898;28;45439;-61
2022/08/14 05:58:16;;;;;;;;;7.00;6.00;;;;;;;;5072774;28;46480;-62
2022/08/14 06:00:42;;;;;;;;;6.00;6.00;;;;;;;;5072815;28;45294;-62
2022/08/14 06:03:09;;;;;;;;;7.75;7.25;;;;;;;;5073081;28;45264;-63
2022/08/14 06:05:34;;;;;;;;;5.50;5.50;;;;;;;;5054781;28;45578;-62
2022/08/14 06:08:00;;;;;;;;;6.25;5.75;;;;;;;;5055315;28;46501;-63
2022/08/14 06:10:29;;;;;;;;;9.00;7.00;;;;;;;;5057735;28;45586;-63
2022/08/14 06:12:55;;;;;;;;;7.50;6.25;;;;;;;;5076116;28;45357;-63
2022/08/14 06:15:20;;;;;;;;;9.00;8.00;;;;;;;;5076149;28;45333;-63
2022/08/14 06:17:46;;;;;;;;;6.00;6.00;;;;;;;;5075862;28;46728;-62
2022/08/14 06:20:12;;;;;;;;;6.00;6.00;;;;;;;;5075967;28;45456;-63
2022/08/14 06:22:38;;;;;;;;;6.25;5.00;;;;;;;;5075590;28;45361;-63
2022/08/14 06:25:03;;;;;;;;;7.25;7.25;;;;;;;;5075901;28;45265;-63
2022/08/14 06:27:43;;;;;;;;;7.00;7.00;;;;;;;;5057379;28;46536;-63
2022/08/14 06:30:10;;;;;;;;;7.25;7.00;;;;;;;;5075841;28;45332;-62
2022/08/14 06:32:36;;;;;;;;;9.00;7.00;;;;;;;;5075606;28;45426;-62
2022/08/14 06:35:05;;;;;;;;;6.00;6.00;;;;;;;;5075603;28;45361;-62
2022/08/14 06:37:50;;;;;;;;;7.00;7.00;;;;;;;;5057698;28;45640;-62
2022/08/14 06:40:17;;;;;;;;;5.00;5.00;;;;;;;;5075454;28;45345;-62
2022/08/14 06:42:43;;;;;;;;;8.00;8.00;;;;;;;;5057468;27;45389;-62
2022/08/14 06:45:08;;;;;;;;;6.25;6.25;;;;;;;;5071566;28;45768;-61
2022/08/14 06:47:35;;;;;;;;;5.50;5.50;;;;;;;;5055830;28;48031;-62
2022/08/14 06:50:00;;;;;;;;;8.00;8.00;;;;;;;;5074850;28;45335;-64
2022/08/14 06:52:26;;;;;;;;;8.00;6.50;;;;;;;;5074778;28;45297;-65
2022/08/14 06:54:51;;;;;;;;;9.25;8.00;;;;;;;;5040318;27;45329;-62
2022/08/14 06:57:16;;;;;;;;;7.00;5.75;;;;;;;;5072853;28;46599;-64
2022/08/14 06:59:42;;;;;;;;;9.25;7.25;;;;;;;;5061022;27;45492;-64
2022/08/14 07:07:36;;;;;;;;;7.75;7.75;;;;;;;;5073439;28;45228;-64
2022/08/14 07:10:03;;;;;;;;;11.00;8.75;;;;;;;;5054871;27;45421;-61
2022/08/14 07:12:28;;;;;;;;;8.75;7.75;;;;;;;;5072681;28;45368;-63
2022/08/14 07:14:53;;;;;;;;;8.00;7.00;;;;;;;;5074462;28;45496;-63
2022/08/14 07:17:19;;;;;;;;;7.00;7.00;;;;;;;;5074154;28;46149;-66
2022/08/14 07:19:44;;;;;;;;;7.25;7.25;;;;;;;;5072866;28;45407;-67
2022/08/14 07:22:10;;;;;;;;;8.25;7.00;;;;;;;;5074643;28;45376;-66
2022/08/14 07:24:35;;;;;;;;;6.25;6.25;;;;;;;;5074735;28;45300;-66
2022/08/14 07:27:00;;;;;;;;;6.50;6.50;;;;;;;;5074575;28;45595;-67
2022/08/14 07:29:26;;;;;;;;;4.50;4.50;;;;;;;;5074100;28;45407;-66
2022/08/14 07:31:52;;;;;;;;;6.75;5.00;;;;;;;;5074825;28;45427;-64
2022/08/14 07:34:17;;;;;;;;;5.75;4.25;;;;;;;;5056848;28;45302;-66
2022/08/14 07:36:42;;;;;;;;;4.50;4.50;;;;;;;;5074903;28;46442;-66
2022/08/14 07:39:08;;;;;;;;;6.00;6.00;;;;;;;;5056613;28;45316;-65
2022/08/14 07:41:33;;;;;;;;;4.00;4.00;;;;;;;;5075027;28;45272;-65
2022/08/14 07:43:58;;;;;;;;;5.75;5.00;;;;;;;;5056815;28;45592;-64
2022/08/14 07:46:23;;;;;;;;;5.75;5.75;;;;;;;;5074653;28;46423;-64
2022/08/14 07:48:48;;;;;;;;;5.00;5.00;;;;;;;;5074705;28;45333;-64
2022/08/14 07:51:14;;;;;;;;;4.25;4.00;;;;;;;;5056007;28;45299;-65
2022/08/14 07:53:39;;;;;;;;;3.75;3.75;;;;;;;;5056646;28;45308;-65
2022/08/14 07:56:04;;;;;;;;;5.25;4.25;;;;;;;;5056267;28;46337;-65
2022/08/14 07:58:30;;;;;;;;;3.25;3.25;;;;;;;;5074728;28;45684;-65
2022/08/14 08:00:55;;;;;;;;;6.00;5.00;;;;;;;;5074809;28;45409;-66
2022/08/14 08:03:21;;;;;;;;;4.75;4.00;;;;;;;;5074708;28;45381;-67
2022/08/14 08:05:47;;;;;;;;;4.25;4.25;;;;;;;;5056501;28;47791;-65
2022/08/14 08:08:15;;;;;;;;;5.25;4.00;;;;;;;;5074412;28;45271;-66
2022/08/14 08:10:41;;;;;;;;;4.75;4.75;;;;;;;;5073982;28;45385;-66
2022/08/14 08:13:14;;;;;;;;;4.25;4.25;;;;;;;;5073974;28;45340;-66
2022/08/14 08:15:52;;;;;;;;;6.50;6.00;;;;;;;;5074063;28;46669;-69
2022/08/14 08:18:18;;;;;;;;;6.00;5.00;;;;;;;;5073478;28;45437;-67
2022/08/14 08:20:45;;;;;;;;;5.75;4.75;;;;;;;;5073721;28;45479;-66
2022/08/14 08:23:11;;;;;;;;;5.50;5.50;;;;;;;;5055547;27;45484;-66
2022/08/14 08:25:37;;;;;;;;;5.00;5.00;;;;;;;;5073509;28;45809;-66
2022/08/14 08:28:08;;;;;;;;;5.00;5.00;;;;;;;;5074503;28;45280;-67
2022/08/14 08:30:36;;;;;;;;;6.00;6.00;;;;;;;;5055970;28;45345;-67
2022/08/14 08:33:01;;;;;;;;;4.50;4.50;;;;;;;;5072903;28;45370;-68
2022/08/14 08:35:28;;;;;;;;;6.25;6.25;;;;;;;;5055771;27;47512;-66
2022/08/14 08:37:59;;;;;;;;;3.00;2.00;;;;;;;;5074080;28;45374;-65
2022/08/14 08:40:30;;;;;;;;;4.00;4.00;;;;;;;;5073243;28;45359;-65
2022/08/14 08:42:55;;;;;;;;;4.00;4.00;;;;;;;;5073508;28;45399;-66
2022/08/14 08:45:21;;;;;;;;;4.00;4.00;;;;;;;;5073845;28;46369;-65
2022/08/14 08:47:47;;;;;;;;;4.75;4.75;;;;;;;;5073707;28;45412;-65
2022/08/14 08:50:20;;;;;;;;;6.50;5.00;;;;;;;;5074310;28;45326;-67
2022/08/14 08:52:49;;;;;;;;;5.50;5.50;;;;;;;;5073652;28;45520;-65
2022/08/14 08:55:15;;;;;;;;;6.25;6.25;;;;;;;;5055427;28;47597;-66
2022/08/14 08:57:41;;;;;;;;;6.00;6.00;;;;;;;;5073675;28;45230;-61
2022/08/14 09:00:14;;;;;;;;;6.25;5.00;;;;;;;;5055735;28;45395;-62
2022/08/14 09:02:53;;;;;;;;;7.00;7.00;;;;;;;;5054967;28;45344;-62
2022/08/14 09:05:18;;;;;;;;;7.25;7.25;;;;;;;;5055151;28;46301;-62
2022/08/14 09:07:43;;;;;;;;;7.50;7.50;;;;;;;;5073448;28;45277;-62
2022/08/14 09:10:09;;;;;;;;;6.00;6.00;;;;;;;;5073865;28;45393;-62
2022/08/14 09:12:34;;;;;;;;;7.50;7.25;;;;;;;;5073998;28;45598;-62
2022/08/14 09:15:00;;;;;;;;;6.50;6.50;;;;;;;;5073600;28;45670;-62
2022/08/14 09:17:26;;;;;;;;;7.25;7.25;;;;;;;;5073681;28;45293;-62
2022/08/14 09:19:52;;;;;;;;;6.00;5.25;;;;;;;;5073817;28;45292;-61
2022/08/14 09:22:17;;;;;;;;;8.50;7.50;;;;;;;;5072580;28;45389;-62
2022/08/14 09:24:43;;;;;;;;;6.50;6.50;;;;;;;;5073473;28;46096;-62
2022/08/14 09:27:08;;;;;;;;;6.00;6.00;;;;;;;;5073364;28;45375;-62
2022/08/14 09:29:34;;;;;;;;;8.00;6.00;;;;;;;;5073764;28;45339;-61
2022/08/14 09:32:01;;;;;;;;;4.25;4.25;;;;;;;;5073820;28;45503;-62
2022/08/14 09:34:49;;;;;;;;;8.25;6.25;;;;;;;;5073254;28;46837;-63
2022/08/14 09:37:17;;;;;;;;;6.00;6.00;;;;;;;;5073251;28;45479;-62
2022/08/14 09:40:01;;;;;;;;;3.25;0.75;;;;;;;;5073270;28;45481;-62
2022/08/14 09:42:29;;;;;;;;;6.00;6.00;;;;;;;;5072798;28;45337;-62
2022/08/14 09:45:12;;;;;;;;;5.25;4.25;;;;;;;;5073086;28;46405;-62
2022/08/14 09:47:44;;;;;;;;;4.50;4.50;;;;;;;;5072998;28;45380;-62
2022/08/14 09:50:24;;;;;;;;;5.00;5.00;;;;;;;;5055039;28;45342;-62
2022/08/14 09:52:51;;;;;;;;;5.00;5.00;;;;;;;;5073245;28;45375;-61
2022/08/14 09:55:18;;;;;;;;;6.50;6.50;;;;;;;;5072916;28;46514;-62
2022/08/14 09:57:44;;;;;;;;;5.00;4.25;;;;;;;;5073090;28;45259;-62
2022/08/14 10:00:10;;;;;;;;;4.50;4.50;;;;;;;;5073120;28;45227;-62
2022/08/14 10:02:36;;;;;;;;;5.25;5.25;;;;;;;;5072877;27;45259;-62
2022/08/14 10:05:01;;;;;;;;;5.00;3.00;;;;;;;;5072730;28;45766;-62
2022/08/14 10:07:33;;;;;;;;;4.00;4.00;;;;;;;;5072950;28;45348;-62
2022/08/14 10:09:59;;;;;;;;;5.25;5.00;;;;;;;;5073050;28;45479;-61
2022/08/14 10:12:25;;;;;;;;;5.00;5.00;;;;;;;;5072754;28;45451;-62
2022/08/14 10:14:50;;;;;;;;;6.50;5.50;;;;;;;;5071876;28;46415;-62
2022/08/14 10:17:23;;;;;;;;;3.25;3.25;;;;;;;;5072127;28;45341;-62
2022/08/14 10:19:48;;;;;;;;;4.00;4.00;;;;;;;;5072829;28;45328;-62
2022/08/14 10:22:14;;;;;;;;;4.00;3.00;;;;;;;;5072442;27;45359;-63
2022/08/14 10:24:46;;;;;;;;;2.00;2.00;;;;;;;;5062296;28;46372;-62
2022/08/14 10:27:17;;;;;;;;;3.50;3.50;;;;;;;;5061513;28;45344;-62
2022/08/14 10:29:44;;;;;;;;;6.25;6.25;;;;;;;;5072576;28;45382;-63
2022/08/14 10:32:12;;;;;;;;;4.75;4.75;;;;;;;;5072259;28;45340;-63
2022/08/14 10:34:38;;;;;;;;;5.50;4.25;;;;;;;;5072265;28;45318;-62
2022/08/14 10:37:06;;;;;;;;;5.00;5.00;;;;;;;;5072156;28;45380;-63
2022/08/14 10:39:32;;;;;;;;;5.00;5.00;;;;;;;;5073299;28;45284;-61
2022/08/14 10:42:08;;;;;;;;;7.00;4.50;;;;;;;;5072019;28;45359;-63
2022/08/14 10:44:35;;;;;;;;;7.00;7.00;;;;;;;;5072361;28;45411;-61
2022/08/14 10:47:06;;;;;;;;;6.00;6.00;;;;;;;;5054026;28;45670;-62
2022/08/14 10:49:32;;;;;;;;;3.25;3.00;;;;;;;;5071933;28;45401;-62
2022/08/14 10:52:05;;;;;;;;;7.00;5.00;;;;;;;;5072401;28;45220;-62
2022/08/14 10:54:41;;;;;;;;;5.00;5.00;;;;;;;;5054988;28;45822;-62
2022/08/14 10:57:10;;;;;;;;;4.75;4.75;;;;;;;;5057051;28;45332;-61
2022/08/14 10:59:42;;;;;;;;;4.50;4.50;;;;;;;;5075333;28;45344;-61
2022/08/14 11:02:23;;;;;;;;;5.75;5.50;;;;;;;;5075029;28;45356;-61
2022/08/14 11:05:10;;;;;;;;;6.50;6.50;;;;;;;;5075077;28;46156;-62
2022/08/14 11:07:38;;;;;;;;;5.00;5.00;;;;;;;;5075194;28;45276;-61
2022/08/14 11:10:05;;;;;;;;;4.00;4.00;;;;;;;;5075457;28;45305;-62
2022/08/14 11:12:47;;;;;;;;;2.00;2.00;;;;;;;;5075116;28;45284;-61
2022/08/14 11:15:23;;;;;;;;;4.00;4.00;;;;;;;;5075026;28;45862;-61
2022/08/14 11:17:49;;;;;;;;;5.25;5.25;;;;;;;;5074703;28;46618;-60
2022/08/14 11:20:16;;;;;;;;;5.25;5.25;;;;;;;;5075218;28;45404;-61
2022/08/14 11:22:41;;;;;;;;;6.00;5.00;;;;;;;;5073081;27;45374;-62
2022/08/14 11:25:09;;;;;;;;;8.00;5.50;;;;;;;;5074797;28;46531;-61
2022/08/14 11:27:34;;;;;;;;;5.25;5.25;;;;;;;;5056455;28;45396;-61
2022/08/14 11:30:02;;;;;;;;;6.00;5.00;;;;;;;;5056199;28;45477;-60
2022/08/14 11:32:29;;;;;;;;;4.75;4.75;;;;;;;;5056667;28;45466;-62
2022/08/14 11:34:55;;;;;;;;;5.50;5.50;;;;;;;;5074674;28;47562;-62
2022/08/14 11:37:20;;;;;;;;;7.50;7.50;;;;;;;;5074783;28;45315;-61
2022/08/14 11:39:47;;;;;;;;;5.25;5.25;;;;;;;;5075023;28;45376;-61
2022/08/14 11:42:19;;;;;;;;;7.50;7.00;;;;;;;;5070916;28;45372;-62
2022/08/14 11:44:44;;;;;;;;;6.00;6.00;;;;;;;;5054984;28;47858;-63
2022/08/14 11:47:18;;;;;;;;;4.00;4.00;;;;;;;;5073846;28;45336;-63
2022/08/14 11:49:43;;;;;;;;;6.75;6.75;;;;;;;;5073536;28;45366;-63
2022/08/14 11:52:08;;;;;;;;;5.75;5.75;;;;;;;;5073700;28;45332;-64
2022/08/14 11:54:34;;;;;;;;;6.00;6.00;;;;;;;;5073437;28;45755;-63
2022/08/14 11:57:00;;;;;;;;;8.00;6.25;;;;;;;;5055617;27;45392;-63
2022/08/14 11:59:28;;;;;;;;;5.00;5.00;;;;;;;;5055377;28;45377;-63
2022/08/14 12:01:53;;;;;;;;;6.25;4.75;;;;;;;;5074082;28;45453;-63
2022/08/14 12:04:20;;;;;;;;;5.00;5.00;;;;;;;;5073923;28;45534;-62
2022/08/14 12:06:47;;;;;;;;;6.25;6.00;;;;;;;;5054719;28;45510;-62
2022/08/14 12:09:12;;;;;;;;;6.00;6.00;;;;;;;;5073868;28;45386;-64
2022/08/14 12:11:39;;;;;;;;;5.75;5.50;;;;;;;;5073142;28;45433;-61
2022/08/14 12:14:07;;;;;;;;;8.25;7.25;;;;;;;;5055090;28;47800;-62
2022/08/14 12:16:34;;;;;;;;;6.75;6.75;;;;;;;;5055166;27;45579;-63
2022/08/14 12:19:00;;;;;;;;;8.50;6.50;;;;;;;;5072998;28;45385;-62
2022/08/14 12:21:26;;;;;;;;;11.00;8.75;;;;;;;;5055342;27;45419;-59
2022/08/14 12:24:05;;;;;;;;;10.50;7.50;;;;;;;;5073099;27;46794;-61
2022/08/14 12:26:30;;;;;;;;;6.00;6.00;;;;;;;;5073004;28;45560;-61
2022/08/14 12:29:08;;;;;;;;;7.25;6.25;;;;;;;;5073715;28;45359;-62
2022/08/14 12:31:33;;;;;;;;;10.50;8.00;;;;;;;;5073485;28;45310;-62
2022/08/14 12:34:00;;;;;;;;;6.00;6.00;;;;;;;;5073203;28;46591;-61
2022/08/14 12:36:31;;;;;;;;;9.00;7.75;;;;;;;;5072742;28;45460;-62
2022/08/14 12:38:57;;;;;;;;;4.75;4.75;;;;;;;;5072693;28;45425;-61
2022/08/14 12:41:24;;;;;;;;;5.75;5.75;;;;;;;;5072474;28;45448;-62
2022/08/14 12:43:50;;;;;;;;;4.75;4.75;;;;;;;;5073038;28;46597;-61
2022/08/14 12:46:22;;;;;;;;;6.25;5.50;;;;;;;;5072974;28;45659;-62
2022/08/14 12:48:47;;;;;;;;;5.25;4.25;;;;;;;;5054649;28;45397;-62
2022/08/14 12:51:17;;;;;;;;;6.00;6.00;;;;;;;;5072812;28;45302;-63
2022/08/14 12:53:42;;;;;;;;;4.00;4.00;;;;;;;;5072578;28;45748;-62
2022/08/14 12:56:08;;;;;;;;;5.00;4.00;;;;;;;;5072780;28;45356;-62
2022/08/14 12:58:34;;;;;;;;;4.50;4.25;;;;;;;;5072627;28;45373;-62
2022/08/14 13:01:00;;;;;;;;;5.00;4.00;;;;;;;;5073274;28;45328;-63
2022/08/14 13:03:34;;;;;;;;;3.75;3.50;;;;;;;;5065204;28;46344;-61
2022/08/14 13:05:59;;;;;;;;;5.25;4.50;;;;;;;;5053259;28;46367;-63
2022/08/14 13:08:24;;;;;;;;;5.00;5.00;;;;;;;;5051297;28;45275;-62
2022/08/14 13:10:50;;;;;;;;;6.50;4.00;;;;;;;;5071284;28;45440;-62
2022/08/14 13:13:16;;;;;;;;;3.75;3.75;;;;;;;;5072159;28;45745;-62
2022/08/14 13:15:44;;;;;;;;;3.50;3.50;;;;;;;;5053620;28;45410;-62
2022/08/14 13:18:11;;;;;;;;;3.00;3.00;;;;;;;;5071495;28;45354;-62
2022/08/14 13:20:36;;;;;;;;;4.75;4.00;;;;;;;;5072651;28;45356;-61
2022/08/14 13:23:01;;;;;;;;;4.00;4.00;;;;;;;;5071901;27;45823;-61
2022/08/14 13:25:27;;;;;;;;;4.00;4.00;;;;;;;;5072319;28;45317;-61
2022/08/14 13:27:53;;;;;;;;;4.00;4.00;;;;;;;;5072973;28;45376;-60
2022/08/14 13:30:19;;;;;;;;;3.00;3.00;;;;;;;;5072425;28;45748;-61
2022/08/14 13:32:45;;;;;;;;;4.50;4.00;;;;;;;;5071834;28;46536;-61
2022/08/14 13:35:11;;;;;;;;;4.25;3.75;;;;;;;;5072587;28;45352;-62
2022/08/14 13:37:36;;;;;;;;;2.25;2.25;;;;;;;;5072474;28;45374;-61
2022/08/14 13:40:02;;;;;;;;;5.25;4.00;;;;;;;;5072267;28;45396;-62
2022/08/14 13:42:28;;;;;;;;;2.25;2.25;;;;;;;;5071700;28;46810;-61
2022/08/14 13:44:54;;;;;;;;;4.25;4.25;;;;;;;;5072424;28;45448;-62
2022/08/14 13:47:20;;;;;;;;;5.50;4.50;;;;;;;;5072169;28;45270;-62
2022/08/14 13:49:46;;;;;;;;;5.00;5.00;;;;;;;;5054269;28;45331;-63
2022/08/14 13:52:16;;;;;;;;;5.00;4.00;;;;;;;;5071690;28;45674;-62
2022/08/14 13:54:43;;;;;;;;;3.25;3.00;;;;;;;;5070708;28;45524;-63
2022/08/14 13:57:10;;;;;;;;;3.00;3.00;;;;;;;;5072324;28;45275;-64
2022/08/14 13:59:37;;;;;;;;;4.00;4.00;;;;;;;;5072156;28;45355;-63
2022/08/14 14:02:05;;;;;;;;;5.00;5.00;;;;;;;;5071963;28;45678;-65
2022/08/14 14:04:31;;;;;;;;;4.00;4.00;;;;;;;;5072399;28;45351;-63
2022/08/14 14:06:59;;;;;;;;;4.25;3.75;;;;;;;;5071676;28;45508;-61
2022/08/14 14:09:30;;;;;;;;;4.25;4.25;;;;;;;;5071835;28;45428;-63
2022/08/14 14:11:57;;;;;;;;;3.50;2.75;;;;;;;;5071809;28;46379;-63
2022/08/14 14:14:25;;;;;;;;;3.00;3.00;;;;;;;;5071770;28;45195;-62
2022/08/14 14:16:51;;;;;;;;;5.00;4.00;;;;;;;;5053615;28;45429;-62
2022/08/14 14:19:19;;;;;;;;;3.50;3.50;;;;;;;;5071357;28;45336;-62
2022/08/14 14:21:48;;;;;;;;;2.50;2.50;;;;;;;;5053511;27;47520;-61
2022/08/14 14:24:13;;;;;;;;;3.75;2.75;;;;;;;;5071487;28;45442;-62
2022/08/14 14:26:39;;;;;;;;;4.00;4.00;;;;;;;;5053141;28;45392;-63
2022/08/14 14:29:05;;;;;;;;;2.75;2.75;;;;;;;;5072941;28;45505;-62
2022/08/14 14:31:30;;;;;;;;;6.75;3.75;;;;;;;;5074483;28;45683;-63
2022/08/14 14:33:56;;;;;;;;;3.00;3.00;;;;;;;;5056773;28;45527;-63
2022/08/14 14:36:25;;;;;;;;;4.00;3.00;;;;;;;;5074653;28;45377;-62
2022/08/14 14:38:52;;;;;;;;;4.50;4.25;;;;;;;;5056514;28;45703;-65
2022/08/14 14:41:19;;;;;;;;;3.50;3.50;;;;;;;;5072738;28;45877;-63
2022/08/14 14:43:47;;;;;;;;;4.00;3.25;;;;;;;;5074599;28;45561;-63
2022/08/14 14:46:14;;;;;;;;;6.00;4.00;;;;;;;;5074914;28;45309;-61
2022/08/14 14:48:43;;;;;;;;;3.25;2.50;;;;;;;;5033697;27;45490;-62
2022/08/14 14:51:08;;;;;;;;;3.75;3.75;;;;;;;;5053420;28;46574;-61
2022/08/14 14:53:34;;;;;;;;;4.00;3.00;;;;;;;;5054531;28;45384;-62
2022/08/14 14:56:00;;;;;;;;;3.00;3.00;;;;;;;;5055432;28;45296;-60
2022/08/14 14:58:26;;;;;;;;;2.50;2.50;;;;;;;;5055004;28;46127;-60
2022/08/14 15:00:53;;;;;;;;;4.00;3.25;;;;;;;;5054783;28;45739;-61
2022/08/14 15:03:19;;;;;;;;;2.00;2.00;;;;;;;;5054804;28;45973;-61